Etusivu
METAR-TAF:

METAR-TAF

Lentoasemat :

Koyuk, Alaska, Yhdysvallat

Leveyspiiri: 64-56-02N, Pituuspiiri: 161-09-29W, korkeus merenpinnasta: 37 m

Tämänhetkinen sää

Tämä raportti tehtiin 20 minuuttia sitten, kello 15.56 UTC
Tuuli 8 kn pohjoisesta puuskistuen 15 kn:hen
Lämpötila 4°C
Kosteus 93%
Ilmanpaine 1006 hPa
Näkyvyys: 16.1 km
Pilvistä 4500 ft:n korkeudessa
heikkoa sadetta

METAR: PAKK 241556Z AUTO 36008G15KT 10SM -RA OVC045 04/03 A2970 RMK AO2 SLP066 P0004 T00390033

Aika: 08:16 (16:16 UTC)


TAF: puuttuu

Säähavainnot ja -ennusteet yli 4000 lentoasemalta (METAR- ja TAF-raportit).

Käytössä olevat sääasemat on merkitty karttaan keltaisilla ja punaisilla pisteillä.

Aseta hiiri pisteen päälle nähdäksesi sääaseman nimen.

Klikkaa sitten nähdäksesi säähavainnot ja -ennusteet.

Kartan vaihtaminen: klikkaa mustalla rastilla varustettuja vihreitä pisteitä, niin voit zoomata sisään; viivalla varustettua vihreää pistettä, niin voit zoomata ulos tai vihreitä nuolia, niin pääset viereisille kartoille.


METAR-TAF: